»·PEaware :: CAX378 46CA-L71

CAX378 :: 46CA-L71

FLIGHT INFORMATION

Flight Status: Arrived
Operator:
California Airlines (website)
More flights by this operator :: More flights under this callsign
Pilot: Scott M. (2435)
Aircraft: BEECH AIRCRAFT BEECH AIRLINER
(B190)
More flights by this aircraft type
Origin: 46CA Rancho Vallecito
United States
Destination: L71 California City Mun
United States
More flights between these airports :: More routes between these airports
Route: TRM V137 PSP V137 PMD
File this flight plan on PilotEdge
Remarks:
Altitude:
(Current/Filed)
10,500ft
Speed:
(Current/Filed)
220kts
Departed: 19-Jan-16 01:16 PM
Arrived: 19-Jan-16 02:18 PM
Distance/Time
Traveled:
153nm/1:01
Distance/Time
To Go:
Arrived

Flight Plot

Page will automatically refresh every two minutes.


Map Options




Map Legend


Flown Route
Filed Route
Departure Airport
Arrival Airport
Navaid (VOR, NDB)
Fix

Horizontal Profiles

Position Reports

Time Latitude Longitude Heading Altitude Ground
Speed
19-Jan-16 12:59 32.970621 -116.409385 25 1685ft 0kts
19-Jan-16 13:00 32.970621 -116.409385 25 1685ft 0kts
19-Jan-16 13:01 32.970621 -116.409385 25 1685ft 0kts
19-Jan-16 13:02 32.970621 -116.409385 25 1685ft 0kts
19-Jan-16 13:03 32.970621 -116.409385 25 1685ft 0kts
19-Jan-16 13:04 32.970621 -116.409385 25 1685ft 0kts
19-Jan-16 13:05 32.970621 -116.409385 25 1685ft 0kts
19-Jan-16 13:06 32.970621 -116.409385 25 1685ft 0kts
19-Jan-16 13:07 32.970779 -116.409297 36 1685ft 3kts
19-Jan-16 13:08 32.969894 -116.406399 112 1685ft 9kts
19-Jan-16 13:09 32.969449 -116.405826 108 1685ft 0kts
19-Jan-16 13:10 32.969547 -116.405528 0 1685ft 1kts
19-Jan-16 13:11 32.972583 -116.413834 298 1739ft 110kts
19-Jan-16 13:12 32.997371 -116.430016 334 3361ft 114kts
19-Jan-16 13:13 33.029364 -116.432849 357 5017ft 117kts
19-Jan-16 13:14 33.062598 -116.418746 13 6872ft 132kts
19-Jan-16 13:15 33.097000 -116.403104 11 8748ft 135kts
19-Jan-16 13:16 33.132448 -116.387025 9 10388ft 140kts
19-Jan-16 13:17 33.179115 -116.366499 13 10495ft 208kts
19-Jan-16 13:18 33.236814 -116.339914 14 10474ft 232kts
19-Jan-16 13:19 33.298326 -116.311786 14 10463ft 239kts
19-Jan-16 13:20 33.360966 -116.283078 14 10462ft 241kts
19-Jan-16 13:21 33.423618 -116.254319 14 10462ft 242kts
19-Jan-16 13:22 33.486512 -116.225408 14 10461ft 242kts
19-Jan-16 13:23 33.549540 -116.196350 14 10461ft 242kts
19-Jan-16 13:24 33.608823 -116.168965 14 10465ft 243kts
19-Jan-16 13:25 33.661283 -116.199938 316 10467ft 222kts
19-Jan-16 13:26 33.698180 -116.239247 315 10470ft 224kts
19-Jan-16 13:27 33.744266 -116.289798 315 10476ft 224kts
19-Jan-16 13:28 33.788378 -116.339215 315 10484ft 223kts
19-Jan-16 13:29 33.833177 -116.390503 315 10489ft 221kts
19-Jan-16 13:30 33.877270 -116.442179 307 10480ft 220kts
19-Jan-16 13:31 33.907337 -116.506496 300 10490ft 220kts
19-Jan-16 13:32 33.937385 -116.570312 301 10490ft 220kts
19-Jan-16 13:33 33.966616 -116.635230 286 10482ft 222kts
19-Jan-16 13:34 33.975002 -116.709346 281 10492ft 224kts
19-Jan-16 13:35 33.982851 -116.783746 281 10495ft 224kts
19-Jan-16 13:36 33.990732 -116.858102 281 10499ft 224kts
19-Jan-16 13:37 33.998593 -116.931953 282 10501ft 224kts
19-Jan-16 13:38 34.039285 -116.984665 318 10503ft 219kts
19-Jan-16 13:39 34.087425 -117.029887 327 10505ft 220kts
19-Jan-16 13:40 34.140152 -117.067595 324 10497ft 221kts
19-Jan-16 13:41 34.184104 -117.118005 309 10499ft 220kts
19-Jan-16 13:42 34.218986 -117.175693 304 10499ft 220kts
19-Jan-16 13:43 34.251387 -117.238461 299 10498ft 221kts
19-Jan-16 13:44 34.280577 -117.303259 300 10491ft 221kts
19-Jan-16 13:45 34.310433 -117.368091 300 10479ft 221kts
19-Jan-16 13:46 34.340517 -117.432807 300 10469ft 221kts
19-Jan-16 13:47 34.370483 -117.497321 300 10478ft 221kts
19-Jan-16 13:48 34.400550 -117.562173 300 10463ft 221kts
19-Jan-16 13:49 34.430959 -117.627852 301 9533ft 221kts
19-Jan-16 13:50 34.460498 -117.691762 300 8519ft 218kts
19-Jan-16 13:51 34.489972 -117.755618 298 7509ft 219kts
19-Jan-16 13:52 34.519794 -117.820164 296 6518ft 218kts
19-Jan-16 13:53 34.547769 -117.881014 294 6454ft 197kts
19-Jan-16 13:54 34.574303 -117.938736 294 6448ft 196kts
19-Jan-16 13:55 34.600700 -117.996382 295 6446ft 195kts
19-Jan-16 13:56 34.627167 -118.054333 294 6447ft 195kts
19-Jan-16 13:57 34.657960 -118.108585 312 6412ft 205kts
19-Jan-16 13:58 34.702530 -118.155515 308 5623ft 211kts
19-Jan-16 13:59 34.741475 -118.205183 308 5444ft 191kts
19-Jan-16 14:00 34.786212 -118.219040 1 5441ft 177kts
19-Jan-16 14:01 34.834259 -118.209809 1 5438ft 175kts
19-Jan-16 14:02 34.882191 -118.201726 1 5428ft 173kts
19-Jan-16 14:03 34.929197 -118.194870 1 5423ft 170kts
19-Jan-16 14:04 34.975811 -118.188843 1 5420ft 169kts
19-Jan-16 14:05 35.022039 -118.183604 1 5417ft 168kts
19-Jan-16 14:06 35.068223 -118.178940 1 5415ft 168kts
19-Jan-16 14:07 35.114288 -118.174404 1 5415ft 168kts
19-Jan-16 14:08 35.143987 -118.138240 76 5085ft 197kts
19-Jan-16 14:09 35.155446 -118.073579 81 4495ft 177kts
19-Jan-16 14:10 35.161224 -118.024521 61 3735ft 130kts
19-Jan-16 14:11 35.179784 -117.987278 83 3879ft 130kts
19-Jan-16 14:12 35.156271 -117.990853 263 2830ft 119kts
19-Jan-16 14:13 35.151105 -118.016372 177 2440ft 7kts
19-Jan-16 14:14 35.150700 -118.015184 74 2440ft 7kts
19-Jan-16 14:15 35.150277 -118.015279 271 2441ft 0kts
19-Jan-16 14:16 35.150277 -118.015280 271 2441ft 0kts
19-Jan-16 14:17 35.150277 -118.015280 271 2441ft 0kts

Navigation Log

Ident Type
Flight plan parsing failed, navigation log unavailable